createdAt,value
2023-04-12T00:01:03.817Z,47.80
2023-04-12T00:03:34.292Z,47.60
2023-04-12T00:06:03.471Z,48.00
2023-04-12T00:08:33.884Z,47.40
2023-04-12T00:11:02.103Z,47.90
2023-04-12T00:13:29.815Z,48.00
2023-04-12T00:15:56.638Z,47.50
2023-04-12T00:18:25.604Z,0.00
2023-04-12T00:20:53.223Z,47.40
2023-04-12T00:23:20.561Z,47.50
2023-04-12T00:25:47.535Z,47.80
2023-04-12T00:28:15.854Z,48.00
2023-04-12T00:30:42.882Z,47.60
2023-04-12T00:33:09.647Z,47.90
2023-04-12T00:35:36.515Z,48.10
2023-04-12T00:38:04.066Z,47.80
2023-04-12T00:40:30.979Z,48.00
2023-04-12T00:42:57.863Z,48.30
2023-04-12T00:45:24.550Z,48.10
2023-04-12T00:47:51.338Z,48.30
2023-04-12T00:50:18.245Z,48.50
2023-04-12T00:52:45.396Z,48.40
2023-04-12T00:55:12.229Z,48.10
2023-04-12T00:57:40.448Z,48.20
2023-04-12T01:00:13.085Z,48.20
2023-04-12T01:02:47.855Z,48.60
2023-04-12T01:05:21.947Z,48.50
2023-04-12T01:08:07.306Z,48.30
2023-04-12T01:10:57.616Z,48.20
2023-04-12T01:13:41.149Z,48.50
2023-04-12T01:16:31.042Z,0.00
2023-04-12T01:19:03.898Z,48.60
2023-04-12T01:21:51.550Z,49.10
2023-04-12T01:24:45.660Z,49.10
2023-04-12T01:27:39.722Z,49.20
2023-04-12T01:30:08.999Z,48.90
2023-04-12T01:32:38.313Z,49.10
2023-04-12T01:35:08.844Z,49.00
2023-04-12T01:40:09.320Z,49.10
2023-04-12T01:42:36.168Z,49.40
2023-04-12T01:45:03.969Z,49.40
2023-04-12T01:47:31.178Z,49.00
2023-04-12T01:50:02.032Z,48.80
2023-04-12T01:52:34.984Z,49.20
2023-04-12T01:55:02.624Z,49.10
2023-04-12T01:57:29.915Z,48.90
2023-04-12T01:59:58.483Z,48.90
2023-04-12T02:02:26.342Z,48.60
2023-04-12T02:04:54.036Z,48.50
2023-04-12T02:07:21.405Z,48.70
2023-04-12T02:09:48.159Z,48.70
2023-04-12T02:12:14.960Z,48.60
2023-04-12T02:14:41.727Z,48.70
2023-04-12T02:17:08.673Z,48.30
2023-04-12T02:19:35.450Z,48.70
2023-04-12T02:22:02.361Z,48.40
2023-04-12T02:24:29.202Z,48.60
2023-04-12T02:26:56.449Z,48.70
2023-04-12T02:29:23.876Z,48.50
2023-04-12T02:31:51.186Z,48.60
2023-04-12T02:34:18.139Z,48.70
2023-04-12T02:36:48.993Z,48.60
2023-04-12T02:39:19.086Z,48.90
2023-04-12T02:41:46.026Z,48.90
2023-04-12T02:44:12.845Z,49.50
2023-04-12T02:46:39.594Z,48.90
2023-04-12T02:49:06.431Z,51.30
2023-04-12T02:51:33.214Z,0.00
2023-04-12T02:53:59.973Z,52.20
2023-04-12T02:56:26.768Z,52.80
2023-04-12T02:58:53.476Z,53.60
2023-04-12T03:01:20.410Z,0.00
2023-04-12T03:03:47.296Z,54.40
2023-04-12T03:06:14.203Z,54.10
2023-04-12T03:08:40.983Z,54.10
2023-04-12T03:11:07.785Z,54.00
2023-04-12T03:13:34.547Z,54.40
2023-04-12T03:16:23.590Z,54.40
2023-04-12T03:18:51.247Z,55.10
2023-04-12T03:21:19.014Z,55.40
2023-04-12T03:23:45.784Z,55.00
2023-04-12T03:26:12.566Z,55.10
2023-04-12T03:28:41.262Z,55.20
2023-04-12T03:31:08.064Z,54.50
2023-04-12T03:33:34.884Z,54.50
2023-04-12T03:36:01.748Z,54.50
2023-04-12T03:38:28.588Z,54.80
2023-04-12T03:40:55.518Z,54.80
2023-04-12T03:43:22.391Z,54.70
2023-04-12T03:45:49.645Z,54.60
2023-04-12T03:48:16.733Z,54.50
2023-04-12T03:50:46.299Z,54.70
2023-04-12T03:53:13.267Z,54.90
2023-04-12T03:55:40.586Z,54.80
2023-04-12T03:58:07.399Z,54.40
2023-04-12T04:00:34.255Z,54.20
2023-04-12T04:03:03.808Z,52.90
2023-04-12T04:05:31.306Z,52.90
2023-04-12T04:08:02.305Z,52.50
2023-04-12T04:10:29.344Z,52.10
2023-04-12T04:12:56.076Z,51.70
2023-04-12T04:15:23.182Z,51.40
2023-04-12T04:17:50.220Z,52.10
2023-04-12T04:20:18.060Z,51.70
2023-04-12T04:22:48.101Z,51.80
2023-04-12T04:25:15.766Z,51.40
2023-04-12T04:27:44.789Z,50.80
2023-04-12T04:30:12.793Z,50.60
2023-04-12T04:32:39.702Z,50.60
2023-04-12T04:35:07.648Z,51.10
2023-04-12T04:37:37.593Z,50.80
2023-04-12T04:40:13.977Z,51.00
2023-04-12T04:42:42.836Z,50.90
2023-04-12T04:45:14.060Z,51.20
2023-04-12T04:47:41.226Z,50.90
2023-04-12T04:50:08.416Z,51.30
2023-04-12T04:52:35.087Z,51.30
2023-04-12T04:55:03.333Z,51.40
2023-04-12T04:57:31.571Z,51.30
2023-04-12T04:59:58.345Z,51.90
2023-04-12T05:02:26.335Z,51.90
2023-04-12T05:04:56.298Z,51.60
2023-04-12T05:07:23.652Z,51.70
2023-04-12T05:09:50.547Z,52.30
2023-04-12T05:12:17.290Z,52.40
2023-04-12T05:14:47.934Z,52.10
2023-04-12T05:17:18.563Z,52.30
2023-04-12T05:19:45.386Z,52.20
2023-04-12T05:22:13.800Z,52.10
2023-04-12T05:24:41.074Z,52.20
2023-04-12T05:27:07.782Z,51.90
2023-04-12T05:29:34.490Z,52.00
2023-04-12T05:32:02.261Z,51.90
2023-04-12T05:34:29.025Z,52.20
2023-04-12T05:36:55.837Z,51.80
2023-04-12T05:39:22.766Z,52.10
2023-04-12T05:41:49.450Z,52.00
2023-04-12T05:44:16.076Z,52.30
2023-04-12T05:46:42.875Z,52.10
2023-04-12T05:49:09.879Z,52.50
2023-04-12T05:51:41.464Z,52.30
2023-04-12T05:54:09.201Z,52.70
2023-04-12T05:56:36.036Z,52.50
2023-04-12T05:59:02.953Z,52.40
2023-04-12T06:01:32.388Z,52.50
2023-04-12T06:03:59.993Z,52.20
2023-04-12T06:06:30.292Z,52.50
2023-04-12T06:09:00.658Z,52.20
2023-04-12T06:11:27.759Z,52.10
2023-04-12T06:13:54.974Z,52.00
2023-04-12T06:16:21.787Z,0.00
2023-04-12T06:18:48.572Z,51.80
2023-04-12T06:21:15.397Z,51.60
2023-04-12T06:23:42.239Z,51.70
2023-04-12T06:26:09.722Z,51.50
2023-04-12T06:28:36.555Z,51.60
2023-04-12T06:31:04.163Z,51.80
2023-04-12T06:33:31.044Z,51.40
2023-04-12T06:35:57.848Z,51.40
2023-04-12T06:38:24.683Z,0.00
2023-04-12T06:40:51.933Z,51.00
2023-04-12T06:43:22.756Z,51.00
2023-04-12T06:45:52.582Z,50.80
2023-04-12T06:48:19.419Z,51.00
2023-04-12T06:50:46.333Z,51.00
2023-04-12T06:53:15.911Z,50.90
2023-04-12T06:55:42.799Z,50.90
2023-04-12T06:58:10.237Z,50.50
2023-04-12T07:00:37.746Z,50.20
2023-04-12T07:03:04.653Z,49.70
2023-04-12T07:05:31.661Z,49.60
2023-04-12T07:07:58.666Z,50.00
2023-04-12T07:10:25.643Z,50.00
2023-04-12T07:12:52.392Z,49.60
2023-04-12T07:15:19.129Z,50.10
2023-04-12T07:17:45.967Z,49.30
2023-04-12T07:20:12.912Z,48.50
2023-04-12T07:22:39.671Z,49.20
2023-04-12T07:25:10.178Z,50.10
2023-04-12T07:27:37.182Z,50.40
2023-04-12T07:30:04.559Z,50.40
2023-04-12T07:32:31.550Z,50.50
2023-04-12T07:34:59.273Z,50.70
2023-04-12T07:37:26.064Z,50.70
2023-04-12T07:39:53.075Z,50.90
2023-04-12T07:42:19.979Z,51.10
2023-04-12T07:44:46.976Z,50.40
2023-04-12T07:47:14.371Z,50.00
2023-04-12T07:49:41.576Z,49.50
2023-04-12T07:52:08.455Z,49.60
2023-04-12T07:54:35.571Z,49.40
2023-04-12T07:57:03.945Z,48.90
2023-04-12T07:59:31.829Z,48.50
2023-04-12T08:01:59.213Z,48.70
2023-04-12T08:04:28.377Z,48.00
2023-04-12T08:06:56.020Z,47.30
2023-04-12T08:09:24.704Z,46.40
2023-04-12T08:11:52.249Z,45.80
2023-04-12T08:14:20.582Z,46.10
2023-04-12T08:16:47.507Z,44.90
2023-04-12T08:19:14.771Z,45.20
2023-04-12T08:21:42.075Z,44.80
2023-04-12T08:24:09.190Z,44.00
2023-04-12T08:26:36.507Z,44.10
2023-04-12T08:29:03.495Z,44.40
2023-04-12T08:31:30.995Z,45.20
2023-04-12T08:34:00.028Z,45.90
2023-04-12T08:36:29.910Z,45.80
2023-04-12T08:39:01.101Z,45.80
2023-04-12T08:41:28.434Z,45.30
2023-04-12T08:43:56.037Z,45.40
2023-04-12T08:46:23.633Z,45.50
2023-04-12T08:48:55.347Z,44.90
2023-04-12T08:51:22.818Z,44.90
2023-04-12T08:53:51.112Z,44.80
2023-04-12T08:56:18.932Z,45.10
2023-04-12T08:58:50.419Z,45.20
2023-04-12T09:01:18.617Z,44.90
2023-04-12T09:03:47.070Z,45.30
2023-04-12T09:06:14.279Z,45.30
2023-04-12T09:08:54.862Z,45.00
2023-04-12T09:11:24.392Z,45.20
2023-04-12T09:13:51.733Z,45.00
2023-04-12T09:16:20.544Z,0.00
2023-04-12T09:18:52.009Z,44.10
2023-04-12T09:21:19.127Z,43.70
2023-04-12T09:24:11.604Z,43.70
2023-04-12T09:26:40.963Z,43.50
2023-04-12T09:29:24.344Z,43.00
2023-04-12T09:32:04.922Z,42.70
2023-04-12T09:34:32.931Z,41.70
2023-04-12T09:36:59.898Z,41.90
2023-04-12T09:39:34.448Z,41.10
2023-04-12T09:42:10.529Z,41.00
2023-04-12T09:44:42.479Z,41.00
2023-04-12T09:47:09.254Z,41.30
2023-04-12T09:49:38.069Z,40.90
2023-04-12T09:52:10.613Z,40.90
2023-04-12T09:54:50.801Z,40.60
2023-04-12T09:57:21.923Z,40.80
2023-04-12T09:59:52.889Z,40.00
2023-04-12T10:02:26.813Z,40.40
2023-04-12T10:04:54.753Z,40.20
2023-04-12T10:07:21.972Z,39.90
2023-04-12T10:09:49.189Z,40.20
2023-04-12T10:12:16.871Z,39.90
2023-04-12T10:14:44.591Z,39.80
2023-04-12T10:17:13.588Z,39.80
2023-04-12T10:19:40.993Z,39.90
2023-04-12T10:22:07.864Z,38.10
2023-04-12T10:24:34.842Z,38.70
2023-04-12T10:27:04.191Z,38.30
2023-04-12T10:29:37.794Z,39.60
2023-04-12T10:32:24.470Z,39.90
2023-04-12T10:34:56.581Z,39.60
2023-04-12T10:37:43.291Z,38.30
2023-04-12T10:40:17.484Z,38.20
2023-04-12T10:42:45.664Z,38.30
2023-04-12T10:45:34.215Z,38.40
2023-04-12T10:48:01.998Z,38.30
2023-04-12T10:50:33.828Z,38.20
2023-04-12T10:53:12.931Z,38.70
2023-04-12T10:55:39.997Z,38.70
2023-04-12T10:58:06.828Z,38.90
2023-04-12T11:00:58.921Z,38.80
2023-04-12T11:03:28.367Z,38.60
2023-04-12T11:06:20.018Z,38.80
2023-04-12T11:08:56.765Z,38.80
2023-04-12T11:11:27.518Z,39.20
2023-04-12T11:13:59.255Z,39.10
2023-04-12T11:16:26.019Z,39.30
2023-04-12T11:18:54.124Z,39.00
2023-04-12T11:21:21.304Z,0.00
2023-04-12T11:23:48.876Z,39.20
2023-04-12T11:26:21.138Z,39.20
2023-04-12T11:28:50.214Z,39.40
2023-04-12T11:31:20.375Z,39.70
2023-04-12T11:33:47.176Z,39.20
2023-04-12T11:36:14.366Z,39.00
2023-04-12T11:38:41.652Z,39.50
2023-04-12T11:41:15.469Z,39.50
2023-04-12T11:43:45.971Z,39.70
2023-04-12T11:46:12.992Z,39.80
2023-04-12T11:48:40.210Z,39.40
2023-04-12T11:51:20.410Z,39.20
2023-04-12T11:53:52.021Z,39.40
2023-04-12T11:56:18.818Z,39.20
2023-04-12T11:58:47.823Z,38.90
2023-04-12T12:01:20.328Z,39.50
2023-04-12T12:03:48.174Z,39.00
2023-04-12T12:06:19.187Z,39.10
2023-04-12T12:08:46.610Z,39.20
2023-04-12T12:11:13.653Z,39.40
2023-04-12T12:13:48.179Z,39.10
2023-04-12T12:16:15.607Z,39.30
2023-04-12T12:18:46.845Z,39.00
2023-04-12T12:21:15.489Z,39.10
2023-04-12T12:23:46.092Z,39.80
2023-04-12T12:26:25.529Z,39.20
2023-04-12T12:28:57.356Z,39.30
2023-04-12T12:31:27.464Z,39.10
2023-04-12T12:33:58.546Z,39.20
2023-04-12T12:36:32.349Z,38.60
2023-04-12T12:39:10.245Z,38.90
2023-04-12T12:41:37.969Z,38.50
2023-04-12T12:44:05.326Z,38.10
2023-04-12T12:46:50.570Z,38.50
2023-04-12T12:49:18.920Z,38.30
2023-04-12T12:51:45.799Z,38.60
2023-04-12T12:54:12.689Z,38.30
2023-04-12T12:56:39.558Z,38.30
2023-04-12T12:59:06.568Z,38.20
2023-04-12T13:01:33.424Z,38.20
2023-04-12T13:04:00.435Z,38.10
2023-04-12T13:06:28.139Z,37.60
2023-04-12T13:08:55.658Z,37.70
2023-04-12T13:11:22.735Z,37.80
2023-04-12T13:13:49.551Z,37.30
2023-04-12T13:16:16.876Z,37.50
2023-04-12T13:18:44.317Z,37.70
2023-04-12T13:21:11.266Z,37.90
2023-04-12T13:23:38.038Z,37.90
2023-04-12T13:26:05.115Z,37.60
2023-04-12T13:28:32.174Z,37.80
2023-04-12T13:30:58.941Z,37.40
2023-04-12T13:33:25.896Z,37.40
2023-04-12T13:35:52.751Z,37.50
2023-04-12T13:38:19.766Z,37.50
2023-04-12T13:40:46.631Z,37.40
2023-04-12T13:43:13.436Z,37.80
2023-04-12T13:45:40.389Z,38.30
2023-04-12T13:48:07.302Z,38.70
2023-04-12T13:50:37.351Z,38.90
2023-04-12T13:53:04.199Z,0.00
2023-04-12T13:55:31.144Z,38.80
2023-04-12T13:57:57.980Z,39.10
2023-04-12T14:00:25.029Z,39.50
2023-04-12T14:02:52.111Z,39.20
2023-04-12T14:05:19.063Z,39.30
2023-04-12T14:07:47.915Z,39.20
2023-04-12T14:10:14.755Z,38.80
2023-04-12T14:12:41.737Z,39.10
2023-04-12T14:15:09.199Z,39.40
2023-04-12T14:17:36.405Z,39.10
2023-04-12T14:20:06.527Z,39.30
2023-04-12T14:22:33.538Z,39.30
2023-04-12T14:25:00.357Z,39.90
2023-04-12T14:27:27.610Z,39.50
2023-04-12T14:29:54.498Z,39.30
2023-04-12T14:32:21.703Z,39.20
2023-04-12T14:34:49.134Z,39.00
2023-04-12T14:37:16.415Z,39.40
2023-04-12T14:39:44.485Z,39.40
2023-04-12T14:42:11.424Z,39.20
2023-04-12T14:44:38.326Z,39.40
2023-04-12T14:47:05.412Z,39.40
2023-04-12T14:49:33.439Z,39.30
2023-04-12T14:52:00.958Z,39.40
2023-04-12T14:54:27.843Z,39.60
2023-04-12T14:56:56.063Z,39.50
2023-04-12T14:59:23.325Z,39.60
2023-04-12T15:01:52.634Z,39.50
2023-04-12T15:04:19.959Z,39.70
2023-04-12T15:06:46.974Z,39.60
2023-04-12T15:09:15.720Z,39.80
2023-04-12T15:11:46.455Z,39.50
2023-04-12T15:14:18.151Z,39.80
2023-04-12T15:16:55.098Z,39.80
2023-04-12T15:19:23.409Z,40.50
2023-04-12T15:21:51.667Z,40.00
2023-04-12T15:24:19.293Z,39.90
2023-04-12T15:26:48.404Z,39.90
2023-04-12T15:29:16.663Z,40.40
2023-04-12T15:31:43.679Z,40.30
2023-04-12T15:34:11.583Z,39.90
2023-04-12T15:36:38.491Z,40.00
2023-04-12T15:39:05.301Z,40.60
2023-04-12T15:41:37.901Z,40.10
2023-04-12T15:44:05.650Z,40.30
2023-04-12T15:46:32.548Z,40.10
2023-04-12T15:51:30.222Z,40.30
2023-04-12T15:53:57.327Z,40.10
2023-04-12T15:56:25.353Z,40.70
2023-04-12T15:58:53.394Z,40.40
2023-04-12T16:01:20.315Z,40.50
2023-04-12T16:03:49.155Z,40.80
2023-04-12T16:06:20.523Z,40.80
2023-04-12T16:08:47.925Z,40.90
2023-04-12T16:11:17.096Z,41.40
2023-04-12T16:13:45.644Z,41.30
2023-04-12T16:16:13.381Z,41.30
2023-04-12T16:18:41.497Z,41.60
2023-04-12T16:21:09.949Z,42.40
2023-04-12T16:23:37.893Z,40.90
2023-04-12T16:26:05.899Z,41.00
2023-04-12T16:28:33.644Z,40.90
2023-04-12T16:31:00.616Z,42.00
2023-04-12T16:33:28.038Z,42.30
2023-04-12T16:35:54.954Z,42.20
2023-04-12T16:38:21.856Z,42.60
2023-04-12T16:40:48.637Z,42.50
2023-04-12T16:43:15.656Z,42.10
2023-04-12T16:45:45.610Z,42.70
2023-04-12T16:48:15.836Z,41.10
2023-04-12T16:50:44.812Z,41.20
2023-04-12T16:53:12.157Z,42.40
2023-04-12T16:55:47.970Z,42.40
2023-04-12T16:58:15.104Z,42.40
2023-04-12T17:00:43.125Z,42.30
2023-04-12T17:03:11.558Z,42.10
2023-04-12T17:05:40.734Z,41.80
2023-04-12T17:08:09.553Z,42.00
2023-04-12T17:10:36.854Z,41.30
2023-04-12T17:13:04.396Z,41.20
2023-04-12T17:15:31.447Z,41.50
2023-04-12T17:18:10.155Z,41.80
2023-04-12T17:20:37.547Z,0.00
2023-04-12T17:23:05.045Z,41.30
2023-04-12T17:25:32.138Z,41.60
2023-04-12T17:28:03.064Z,41.90
2023-04-12T17:30:30.772Z,42.20
2023-04-12T17:33:01.003Z,42.30
2023-04-12T17:35:28.131Z,42.10
2023-04-12T17:37:54.968Z,42.10
2023-04-12T17:40:22.011Z,42.50
2023-04-12T17:42:48.748Z,42.00
2023-04-12T17:45:16.090Z,42.10
2023-04-12T17:47:43.779Z,42.40
2023-04-12T17:50:11.883Z,42.60
2023-04-12T17:52:39.157Z,42.70
2023-04-12T17:55:07.624Z,42.60
2023-04-12T17:57:34.617Z,42.80
2023-04-12T18:00:01.529Z,42.90
2023-04-12T18:02:28.466Z,42.80
2023-04-12T18:04:55.693Z,42.70
2023-04-12T18:07:23.091Z,43.20
2023-04-12T18:09:50.691Z,43.50
2023-04-12T18:12:17.708Z,43.40
2023-04-12T18:14:44.870Z,43.10
2023-04-12T18:17:11.709Z,43.50
2023-04-12T18:19:38.569Z,43.30
2023-04-12T18:22:05.729Z,43.50
2023-04-12T18:24:32.622Z,43.50
2023-04-12T18:27:00.135Z,43.90
2023-04-12T18:29:26.943Z,43.60
2023-04-12T18:31:53.826Z,43.80
2023-04-12T18:34:21.052Z,43.80
2023-04-12T18:36:48.058Z,43.60
2023-04-12T18:39:15.013Z,43.50
2023-04-12T18:41:42.001Z,43.50
2023-04-12T18:44:09.603Z,43.80
2023-04-12T18:46:36.818Z,43.70
2023-04-12T18:49:06.412Z,43.40
2023-04-12T18:51:33.633Z,43.80
2023-04-12T18:54:01.169Z,43.90
2023-04-12T18:56:28.237Z,43.80
2023-04-12T18:58:56.344Z,43.80
2023-04-12T19:01:24.415Z,43.80
2023-04-12T19:03:51.709Z,44.30
2023-04-12T19:06:18.644Z,44.20
2023-04-12T19:08:48.478Z,44.00
2023-04-12T19:11:15.799Z,44.60
2023-04-12T19:13:43.097Z,44.50
2023-04-12T19:16:13.691Z,44.30
2023-04-12T19:18:42.024Z,44.60
2023-04-12T19:21:10.830Z,44.50
2023-04-12T19:23:38.811Z,45.20
2023-04-12T19:26:08.343Z,44.80
2023-04-12T19:28:35.865Z,44.90
2023-04-12T19:31:10.280Z,44.80
2023-04-12T19:33:38.494Z,45.10
2023-04-12T19:36:11.100Z,45.40
2023-04-12T19:38:41.274Z,45.10
2023-04-12T19:41:08.886Z,45.50
2023-04-12T19:43:36.821Z,45.20
2023-04-12T19:46:05.857Z,45.60
2023-04-12T19:48:33.800Z,45.70
2023-04-12T19:51:00.933Z,45.70
2023-04-12T19:53:30.076Z,45.60
2023-04-12T19:55:58.976Z,45.80
2023-04-12T19:58:26.792Z,45.80
2023-04-12T20:00:54.958Z,45.80
2023-04-12T20:03:23.532Z,45.80
2023-04-12T20:05:51.061Z,46.10
2023-04-12T20:08:18.534Z,46.10
2023-04-12T20:10:49.131Z,46.00
2023-04-12T20:13:16.819Z,46.10
2023-04-12T20:15:45.966Z,46.20
2023-04-12T20:18:14.782Z,46.80
2023-04-12T20:20:44.993Z,46.90
2023-04-12T20:23:16.092Z,47.10
2023-04-12T20:25:49.667Z,47.40
2023-04-12T20:28:18.012Z,47.60
2023-04-12T20:30:48.347Z,47.70
2023-04-12T20:33:17.489Z,47.90
2023-04-12T20:35:44.756Z,48.50
2023-04-12T20:38:14.935Z,50.00
2023-04-12T20:40:43.578Z,50.50
2023-04-12T20:43:12.786Z,50.40
2023-04-12T20:45:40.206Z,51.00
2023-04-12T20:48:10.856Z,51.40
2023-04-12T20:50:42.252Z,51.90
2023-04-12T20:53:16.258Z,52.10
2023-04-12T20:55:46.418Z,52.80
2023-04-12T20:58:14.320Z,52.40
2023-04-12T21:00:41.487Z,52.90
2023-04-12T21:03:08.830Z,53.30
2023-04-12T21:05:35.986Z,52.50
2023-04-12T21:08:03.563Z,51.70
2023-04-12T21:10:31.211Z,51.70
2023-04-12T21:13:01.948Z,51.60
2023-04-12T21:15:30.919Z,51.70
2023-04-12T21:17:57.858Z,52.10
2023-04-12T21:20:25.424Z,53.80
2023-04-12T21:22:53.643Z,55.70
2023-04-12T21:25:22.216Z,56.90
2023-04-12T21:27:49.728Z,58.40
2023-04-12T21:30:17.373Z,58.10
2023-04-12T21:32:44.484Z,60.90
2023-04-12T21:35:13.879Z,62.00
2023-04-12T21:37:41.068Z,61.40
2023-04-12T21:40:12.534Z,63.40
2023-04-12T21:42:40.935Z,65.20
2023-04-12T21:45:09.854Z,65.30
2023-04-12T21:47:40.242Z,65.20
2023-04-12T21:50:08.516Z,66.50
2023-04-12T21:52:35.711Z,67.00
2023-04-12T21:55:04.865Z,67.90
2023-04-12T21:57:33.090Z,68.20
2023-04-12T22:00:00.197Z,68.90
2023-04-12T22:02:27.575Z,68.00
2023-04-12T22:04:54.549Z,68.50
2023-04-12T22:07:21.629Z,68.40
2023-04-12T22:09:48.753Z,68.80
2023-04-12T22:12:18.048Z,68.60
2023-04-12T22:14:47.581Z,69.90
2023-04-12T22:17:14.896Z,70.30
2023-04-12T22:19:42.156Z,71.10
2023-04-12T22:22:09.799Z,70.60
2023-04-12T22:24:38.675Z,70.30
2023-04-12T22:27:06.872Z,69.40
2023-04-12T22:29:34.473Z,69.90
2023-04-12T22:32:02.402Z,70.40
2023-04-12T22:34:29.298Z,70.10
2023-04-12T22:36:59.046Z,70.60
2023-04-12T22:39:26.571Z,70.00
2023-04-12T22:41:53.719Z,69.60
2023-04-12T22:44:22.157Z,71.10
2023-04-12T22:46:49.723Z,71.30
2023-04-12T22:49:17.766Z,71.70
2023-04-12T22:51:45.093Z,71.30
2023-04-12T22:54:12.087Z,70.40
2023-04-12T22:56:45.470Z,70.20
2023-04-12T22:59:14.205Z,70.60
2023-04-12T23:01:41.844Z,71.40
2023-04-12T23:04:12.157Z,71.90
2023-04-12T23:06:41.637Z,73.80
2023-04-12T23:09:09.852Z,73.80
2023-04-12T23:11:39.798Z,73.50
2023-04-12T23:14:08.426Z,73.40
2023-04-12T23:16:35.597Z,73.60
2023-04-12T23:19:06.340Z,72.40
2023-04-12T23:21:34.965Z,72.80
2023-04-12T23:24:01.889Z,72.70
2023-04-12T23:26:28.611Z,72.50
2023-04-12T23:28:55.273Z,72.70
2023-04-12T23:31:22.095Z,73.60
2023-04-12T23:33:50.589Z,73.50
2023-04-12T23:36:17.458Z,73.20
2023-04-12T23:38:44.365Z,73.40
2023-04-12T23:41:12.523Z,73.20
2023-04-12T23:43:39.497Z,73.90
2023-04-12T23:46:06.809Z,74.50
2023-04-12T23:48:35.247Z,74.60
2023-04-12T23:51:02.016Z,75.30
2023-04-12T23:53:28.805Z,75.80
2023-04-12T23:55:55.986Z,75.40
2023-04-12T23:58:22.751Z,75.90
